Time;durP1;ratioP1;P1;durP2;ratioP2;P2;SDS_P1;SDS_P2;PMS_P1;PMS_P2;Temp;Humidity;BMP_temperature;BMP_pressure;BME280_temperature;BME280_humidity;BME280_pressure;Samples;Min_cycle;Max_cycle;Signal;HPM_P1;HPM_P2
2023/05/05 00:01:53;;;;;;;;;;;11.10;99.90;;;;;;5071654;28;19994;-69
2023/05/05 00:04:21;;;;;;;;;;;11.10;99.90;;;;;;5072571;28;20429;-69
2023/05/05 00:06:47;;;;;;;;;;;11.00;99.90;;;;;;5070970;28;19924;-68
2023/05/05 00:09:13;;;;;;;;;;;11.00;99.90;;;;;;5069546;28;20026;-68
2023/05/05 00:11:38;;;;;;;;;;;11.00;99.90;;;;;;5066390;28;20270;-69
2023/05/05 00:14:04;;;;;;;;;;;11.00;99.90;;;;;;5074738;28;20374;-68
2023/05/05 00:16:29;;;;;;;;;;;10.90;99.90;;;;;;5073084;28;19924;-68
2023/05/05 00:18:55;;;;;;;;;;;10.90;99.90;;;;;;5072936;28;19931;-68
2023/05/05 00:21:20;;;;;;;;;;;10.90;99.90;;;;;;5073472;28;20282;-69
2023/05/05 00:23:46;;;;;;;;;;;10.80;99.90;;;;;;5071741;28;19924;-68
2023/05/05 00:26:12;;;;;;;;;;;10.80;99.90;;;;;;5055176;28;19925;-69
2023/05/05 00:28:37;;;;;;;;;;;10.80;99.90;;;;;;5071303;28;19925;-69
2023/05/05 00:31:03;;;;;;;;;;;10.80;99.90;;;;;;5067878;28;19928;-68
2023/05/05 00:33:28;;;;;;;;;;;10.70;99.90;;;;;;5072412;28;20015;-68
2023/05/05 00:35:54;;;;;;;;;;;10.70;99.90;;;;;;5071700;28;19932;-68
2023/05/05 00:38:19;;;;;;;;;;;10.70;99.90;;;;;;5037793;28;19924;-68
2023/05/05 00:40:45;;;;;;;;;;;10.70;99.90;;;;;;5072190;28;19949;-67
2023/05/05 00:43:11;;;;;;;;;;;10.70;99.90;;;;;;5071077;28;19963;-67
2023/05/05 00:45:41;;;;;;;;;;;10.70;99.90;;;;;;5070541;28;19928;-67
2023/05/05 00:48:08;;;;;;;;;;;10.60;99.90;;;;;;5043400;28;20297;-68
2023/05/05 00:50:33;;;;;;;;;;;10.60;99.90;;;;;;5054345;28;19928;-67
2023/05/05 00:53:00;;;;;;;;;;;10.60;99.90;;;;;;5069715;28;19985;-68
2023/05/05 00:55:26;;;;;;;;;;;10.60;99.90;;;;;;5072017;28;20012;-67
2023/05/05 00:57:52;;;;;;;;;;;10.60;99.90;;;;;;5071867;28;19932;-68
2023/05/05 01:00:18;;;;;;;;;;;10.50;99.90;;;;;;5071991;28;20293;-68
2023/05/05 01:02:43;;;;;;;;;;;10.50;99.90;;;;;;5070456;28;20259;-68
2023/05/05 01:05:09;;;;;;;;;;;10.50;99.90;;;;;;5068814;28;20387;-68
2023/05/05 01:07:35;;;;;;;;;;;10.40;99.90;;;;;;5070459;28;19931;-68
2023/05/05 01:10:04;;;;;;;;;;;10.40;99.90;;;;;;5071215;28;19925;-68
2023/05/05 01:12:44;;;;;;;;;;;10.40;99.90;;;;;;5033806;28;19924;-69
2023/05/05 01:15:28;;;;;;;;;;;10.40;99.90;;;;;;5028250;28;19925;-68
2023/05/05 01:18:08;;;;;;;;;;;10.30;99.90;;;;;;5058243;28;19970;-68
2023/05/05 01:20:38;;;;;;;;;;;10.30;99.90;;;;;;5068821;28;20266;-69
2023/05/05 01:23:08;;;;;;;;;;;10.30;99.90;;;;;;5066624;28;20302;-69
2023/05/05 01:25:52;;;;;;;;;;;10.30;99.90;;;;;;5074629;28;19947;-68
2023/05/05 01:28:33;;;;;;;;;;;10.20;99.90;;;;;;5072178;28;19978;-69
2023/05/05 01:31:08;;;;;;;;;;;10.20;99.90;;;;;;5073590;28;19920;-69
2023/05/05 01:33:53;;;;;;;;;;;10.20;99.90;;;;;;5067924;28;19969;-67
2023/05/05 01:36:22;;;;;;;;;;;10.20;99.90;;;;;;5075818;28;19924;-68
2023/05/05 01:38:50;;;;;;;;;;;10.20;99.90;;;;;;5067307;28;19925;-68
2023/05/05 01:41:17;;;;;;;;;;;10.20;99.90;;;;;;5074680;28;20360;-67
2023/05/05 01:43:44;;;;;;;;;;;10.10;99.90;;;;;;5074442;28;19969;-69
2023/05/05 01:46:11;;;;;;;;;;;10.10;99.90;;;;;;5072862;28;19939;-68
2023/05/05 01:48:37;;;;;;;;;;;10.10;99.90;;;;;;5052879;28;19924;-68
2023/05/05 01:51:04;;;;;;;;;;;10.10;99.90;;;;;;5056334;28;19986;-68
2023/05/05 01:53:30;;;;;;;;;;;10.10;99.90;;;;;;5075478;28;19924;-68
2023/05/05 01:55:56;;;;;;;;;;;10.00;99.90;;;;;;5074353;28;20385;-68
2023/05/05 01:58:23;;;;;;;;;;;10.00;99.90;;;;;;5072255;28;20321;-68
2023/05/05 02:00:49;;;;;;;;;;;10.10;99.90;;;;;;5070162;28;19986;-68
2023/05/05 02:03:16;;;;;;;;;;;10.00;99.90;;;;;;5066628;28;19952;-67
2023/05/05 02:05:42;;;;;;;;;;;10.00;99.90;;;;;;5043846;28;19931;-68
2023/05/05 02:08:08;;;;;;;;;;;10.00;99.90;;;;;;5072446;28;19931;-68
2023/05/05 02:10:34;;;;;;;;;;;10.10;99.90;;;;;;5074118;28;19925;-67
2023/05/05 02:13:03;;;;;;;;;;;10.00;99.90;;;;;;5074183;28;19990;-68
2023/05/05 02:15:30;;;;;;;;;;;10.00;99.90;;;;;;5071932;28;19975;-68
2023/05/05 02:17:56;;;;;;;;;;;10.00;99.90;;;;;;5066287;28;20355;-69
2023/05/05 02:20:23;;;;;;;;;;;10.00;99.90;;;;;;5068109;28;19925;-69
2023/05/05 02:22:48;;;;;;;;;;;10.00;99.90;;;;;;5054531;28;20015;-70
2023/05/05 02:25:16;;;;;;;;;;;10.00;99.90;;;;;;5072626;28;19982;-68
2023/05/05 02:27:42;;;;;;;;;;;10.00;99.90;;;;;;5072678;28;19932;-69
2023/05/05 02:30:09;;;;;;;;;;;10.00;99.90;;;;;;5074334;28;20370;-67
2023/05/05 02:32:47;;;;;;;;;;;10.00;99.90;;;;;;5069265;28;19931;-67
2023/05/05 02:35:20;;;;;;;;;;;10.00;99.90;;;;;;5067464;28;20393;-68
2023/05/05 02:37:49;;;;;;;;;;;9.90;99.90;;;;;;5073753;28;19924;-68
2023/05/05 02:40:16;;;;;;;;;;;10.00;99.90;;;;;;5069872;28;19929;-68
2023/05/05 02:42:43;;;;;;;;;;;9.90;99.90;;;;;;5055417;28;19931;-68
2023/05/05 02:45:11;;;;;;;;;;;9.90;99.90;;;;;;5072864;28;19925;-69
2023/05/05 02:47:36;;;;;;;;;;;9.90;99.90;;;;;;5066889;28;19982;-68
2023/05/05 02:50:05;;;;;;;;;;;9.90;99.90;;;;;;5075168;28;19932;-67
2023/05/05 02:52:31;;;;;;;;;;;9.90;99.90;;;;;;5069811;28;19932;-69
2023/05/05 02:54:58;;;;;;;;;;;9.90;99.90;;;;;;5072668;28;19924;-67
2023/05/05 02:57:30;;;;;;;;;;;9.90;99.90;;;;;;5064162;28;20383;-68
2023/05/05 02:59:59;;;;;;;;;;;9.90;99.90;;;;;;5074124;28;20449;-68
2023/05/05 03:02:46;;;;;;;;;;;10.00;99.90;;;;;;5071542;28;19932;-68
2023/05/05 03:05:12;;;;;;;;;;;9.90;99.90;;;;;;5069733;28;19982;-68
2023/05/05 03:07:52;;;;;;;;;;;9.90;99.90;;;;;;5046336;28;20020;-68
2023/05/05 03:10:20;;;;;;;;;;;9.90;99.90;;;;;;5054863;28;19928;-68
2023/05/05 03:12:48;;;;;;;;;;;9.90;99.90;;;;;;5045749;28;20448;-68
2023/05/05 03:15:14;;;;;;;;;;;9.90;99.90;;;;;;5068478;28;19928;-68
2023/05/05 03:17:40;;;;;;;;;;;9.90;99.90;;;;;;5054423;28;20336;-68
2023/05/05 03:20:06;;;;;;;;;;;9.80;99.90;;;;;;5065947;28;19947;-68
2023/05/05 03:22:37;;;;;;;;;;;9.80;99.90;;;;;;5067695;28;19928;-68
2023/05/05 03:25:03;;;;;;;;;;;9.80;99.90;;;;;;5071279;28;19931;-68
2023/05/05 03:27:29;;;;;;;;;;;9.80;99.90;;;;;;5056349;28;20293;-68
2023/05/05 03:29:55;;;;;;;;;;;9.80;99.90;;;;;;5073974;28;19989;-68
2023/05/05 03:32:22;;;;;;;;;;;9.80;99.90;;;;;;5072316;28;20023;-67
2023/05/05 03:34:48;;;;;;;;;;;9.80;99.90;;;;;;5074826;28;19931;-68
2023/05/05 03:37:14;;;;;;;;;;;9.80;99.90;;;;;;5061153;28;19925;-67
2023/05/05 03:39:39;;;;;;;;;;;9.90;99.90;;;;;;5067591;28;20290;-68
2023/05/05 03:42:07;;;;;;;;;;;9.90;99.90;;;;;;5062729;28;19932;-68
2023/05/05 03:44:34;;;;;;;;;;;10.00;99.90;;;;;;5055678;28;20014;-69
2023/05/05 03:46:59;;;;;;;;;;;10.00;99.90;;;;;;5069321;28;20289;-68
2023/05/05 03:49:25;;;;;;;;;;;10.00;99.90;;;;;;5071924;28;19925;-68
2023/05/05 03:51:51;;;;;;;;;;;10.00;99.90;;;;;;5074956;28;19924;-67
2023/05/05 03:54:16;;;;;;;;;;;10.10;99.90;;;;;;5064076;28;19946;-68
2023/05/05 03:56:42;;;;;;;;;;;10.10;99.90;;;;;;5049873;28;20007;-67
2023/05/05 03:59:07;;;;;;;;;;;10.20;99.90;;;;;;5053334;28;19978;-68
2023/05/05 04:01:34;;;;;;;;;;;10.20;99.90;;;;;;5069487;28;19928;-68
2023/05/05 04:03:59;;;;;;;;;;;10.20;99.90;;;;;;5053548;28;19932;-68
2023/05/05 04:06:25;;;;;;;;;;;10.20;99.90;;;;;;5055085;28;19924;-70
2023/05/05 04:08:50;;;;;;;;;;;10.30;99.90;;;;;;5066764;28;19940;-68
2023/05/05 04:11:16;;;;;;;;;;;10.30;99.90;;;;;;5068756;28;20378;-68
2023/05/05 04:13:41;;;;;;;;;;;10.30;99.90;;;;;;5069082;28;20366;-68
2023/05/05 04:16:08;;;;;;;;;;;10.40;99.90;;;;;;5069430;28;20289;-68
2023/05/05 04:18:34;;;;;;;;;;;10.40;99.90;;;;;;5050663;28;19928;-68
2023/05/05 04:21:00;;;;;;;;;;;10.40;99.90;;;;;;5046555;28;19924;-69
2023/05/05 04:23:26;;;;;;;;;;;10.50;99.90;;;;;;5068924;28;19932;-68
2023/05/05 04:25:51;;;;;;;;;;;10.50;99.90;;;;;;5053334;28;19963;-69
2023/05/05 04:28:17;;;;;;;;;;;10.50;99.90;;;;;;5070398;28;19972;-69
2023/05/05 04:30:42;;;;;;;;;;;10.50;99.90;;;;;;5070788;28;20015;-69
2023/05/05 04:33:08;;;;;;;;;;;10.50;99.90;;;;;;5059269;28;19975;-69
2023/05/05 04:35:33;;;;;;;;;;;10.50;99.90;;;;;;5054698;28;20403;-69
2023/05/05 04:37:59;;;;;;;;;;;10.50;99.90;;;;;;5071674;28;20055;-69
2023/05/05 04:40:25;;;;;;;;;;;10.50;99.90;;;;;;5069903;28;20007;-69
2023/05/05 04:42:51;;;;;;;;;;;10.50;99.90;;;;;;5048087;28;20074;-69
2023/05/05 04:45:16;;;;;;;;;;;10.40;99.90;;;;;;5053297;28;19925;-69
2023/05/05 04:47:42;;;;;;;;;;;10.30;99.90;;;;;;5068891;28;20394;-69
2023/05/05 04:50:08;;;;;;;;;;;10.30;99.90;;;;;;5068799;28;19925;-70
2023/05/05 04:52:33;;;;;;;;;;;10.20;99.90;;;;;;5052672;28;20029;-70
2023/05/05 04:54:59;;;;;;;;;;;10.20;99.90;;;;;;5068385;28;19972;-69
2023/05/05 04:57:25;;;;;;;;;;;10.10;99.90;;;;;;5070652;28;20028;-68
2023/05/05 04:59:51;;;;;;;;;;;10.10;99.90;;;;;;5065823;28;19994;-68
2023/05/05 05:02:17;;;;;;;;;;;10.10;99.90;;;;;;5067443;28;19931;-68
2023/05/05 05:04:42;;;;;;;;;;;10.00;99.90;;;;;;5067163;28;19931;-68
2023/05/05 05:07:08;;;;;;;;;;;9.90;99.90;;;;;;5070224;28;19925;-68
2023/05/05 05:09:33;;;;;;;;;;;9.90;99.90;;;;;;5068474;28;19931;-68
2023/05/05 05:11:59;;;;;;;;;;;9.80;99.90;;;;;;5065080;28;19978;-69
2023/05/05 05:14:26;;;;;;;;;;;9.80;99.90;;;;;;5070159;28;20373;-69
2023/05/05 05:16:52;;;;;;;;;;;9.80;99.90;;;;;;5051175;28;19924;-69
2023/05/05 05:19:18;;;;;;;;;;;9.70;99.90;;;;;;5064209;28;19935;-69
2023/05/05 05:21:43;;;;;;;;;;;9.60;99.90;;;;;;5061538;28;19920;-69
2023/05/05 05:24:10;;;;;;;;;;;9.60;99.90;;;;;;5066668;28;19924;-69
2023/05/05 05:26:36;;;;;;;;;;;9.60;99.90;;;;;;5050702;28;20432;-69
2023/05/05 05:29:02;;;;;;;;;;;9.50;99.90;;;;;;5069448;28;19955;-68
2023/05/05 05:31:27;;;;;;;;;;;9.50;99.90;;;;;;5070853;28;19931;-70
2023/05/05 05:33:54;;;;;;;;;;;9.50;99.90;;;;;;5066720;28;19932;-69
2023/05/05 05:36:20;;;;;;;;;;;9.40;99.90;;;;;;5051849;28;19956;-68
2023/05/05 05:38:46;;;;;;;;;;;9.40;99.90;;;;;;5049237;28;19928;-68
2023/05/05 05:41:11;;;;;;;;;;;9.40;99.90;;;;;;5052507;28;19928;-68
2023/05/05 05:43:37;;;;;;;;;;;9.40;99.90;;;;;;5064313;28;20282;-69
2023/05/05 05:46:02;;;;;;;;;;;9.40;99.90;;;;;;5068572;28;19972;-68
2023/05/05 05:48:28;;;;;;;;;;;9.50;99.90;;;;;;5067791;28;19932;-68
2023/05/05 05:50:54;;;;;;;;;;;9.60;99.90;;;;;;5070005;28;20005;-68
2023/05/05 05:53:20;;;;;;;;;;;9.70;99.90;;;;;;5066926;28;20007;-68
2023/05/05 05:55:46;;;;;;;;;;;10.00;99.90;;;;;;5070318;28;20019;-69
2023/05/05 05:58:11;;;;;;;;;;;10.10;99.90;;;;;;5068655;28;20319;-69
2023/05/05 06:00:37;;;;;;;;;;;10.30;99.90;;;;;;5077889;28;19924;-68
2023/05/05 06:03:03;;;;;;;;;;;10.50;99.90;;;;;;5052863;28;19924;-68
2023/05/05 06:05:28;;;;;;;;;;;10.60;99.90;;;;;;5074947;28;19925;-69
2023/05/05 06:07:54;;;;;;;;;;;10.80;99.90;;;;;;5075949;28;19924;-69
2023/05/05 06:10:19;;;;;;;;;;;10.80;99.90;;;;;;5071201;28;19954;-68
2023/05/05 06:12:45;;;;;;;;;;;10.90;99.90;;;;;;5058934;28;19932;-68
2023/05/05 06:15:11;;;;;;;;;;;10.90;99.90;;;;;;5073037;28;20510;-68
2023/05/05 06:17:36;;;;;;;;;;;10.90;99.90;;;;;;5058631;28;19972;-68
2023/05/05 06:20:02;;;;;;;;;;;10.80;99.90;;;;;;5074249;28;19929;-68
2023/05/05 06:22:27;;;;;;;;;;;10.70;99.90;;;;;;5052299;28;19975;-69
2023/05/05 06:24:53;;;;;;;;;;;10.70;99.90;;;;;;5065227;28;20336;-68
2023/05/05 06:27:18;;;;;;;;;;;10.70;99.90;;;;;;5073745;28;19928;-68
2023/05/05 06:29:44;;;;;;;;;;;10.70;99.90;;;;;;5069211;28;19932;-69
2023/05/05 06:32:11;;;;;;;;;;;10.90;99.90;;;;;;5072624;28;19925;-69
2023/05/05 06:34:37;;;;;;;;;;;11.00;99.90;;;;;;5073135;28;20154;-69
2023/05/05 06:37:02;;;;;;;;;;;11.10;99.90;;;;;;5054704;28;20049;-69
2023/05/05 06:39:28;;;;;;;;;;;11.20;99.90;;;;;;5071453;28;19931;-69
2023/05/05 06:41:53;;;;;;;;;;;11.10;99.90;;;;;;5072670;28;19932;-69
2023/05/05 06:44:19;;;;;;;;;;;11.20;99.90;;;;;;5070082;28;19964;-69
2023/05/05 06:46:44;;;;;;;;;;;11.20;99.90;;;;;;5072600;28;19928;-70
2023/05/05 06:49:10;;;;;;;;;;;11.30;99.90;;;;;;5072946;28;19931;-68
2023/05/05 06:51:35;;;;;;;;;;;11.20;99.90;;;;;;5072285;28;19929;-68
2023/05/05 06:54:01;;;;;;;;;;;11.10;99.90;;;;;;5068883;28;19935;-68
2023/05/05 06:56:26;;;;;;;;;;;11.10;99.90;;;;;;5072438;28;19967;-68
2023/05/05 06:58:52;;;;;;;;;;;11.10;99.90;;;;;;5071102;28;19967;-68
2023/05/05 07:01:17;;;;;;;;;;;11.20;99.90;;;;;;5068502;28;20251;-68
2023/05/05 07:03:43;;;;;;;;;;;11.20;99.90;;;;;;5069425;28;20023;-68
2023/05/05 07:06:09;;;;;;;;;;;11.20;99.90;;;;;;5054055;28;20303;-68
2023/05/05 07:08:34;;;;;;;;;;;11.40;99.90;;;;;;5071178;28;19971;-68
2023/05/05 07:11:00;;;;;;;;;;;11.60;99.90;;;;;;5067979;28;19928;-68
2023/05/05 07:13:26;;;;;;;;;;;11.80;99.90;;;;;;5072769;28;20001;-68
2023/05/05 07:15:51;;;;;;;;;;;11.90;99.90;;;;;;5068179;28;19928;-68
2023/05/05 07:18:17;;;;;;;;;;;12.20;99.90;;;;;;5037012;28;19964;-68
2023/05/05 07:20:43;;;;;;;;;;;12.50;99.90;;;;;;5071255;28;19924;-69
2023/05/05 07:23:11;;;;;;;;;;;12.60;99.90;;;;;;5067640;28;20103;-69
2023/05/05 07:25:37;;;;;;;;;;;12.70;99.90;;;;;;5047170;28;20038;-69
2023/05/05 07:28:03;;;;;;;;;;;13.00;99.90;;;;;;5049585;28;19970;-68
2023/05/05 07:30:28;;;;;;;;;;;13.20;99.90;;;;;;5065660;28;19925;-69
2023/05/05 07:32:54;;;;;;;;;;;13.30;99.90;;;;;;5071452;28;19924;-68
2023/05/05 07:35:19;;;;;;;;;;;13.40;99.90;;;;;;5067518;28;19932;-68
2023/05/05 07:37:45;;;;;;;;;;;13.60;99.90;;;;;;5048338;28;20016;-68
2023/05/05 07:40:11;;;;;;;;;;;13.70;99.90;;;;;;5067024;28;19936;-69
2023/05/05 07:42:37;;;;;;;;;;;13.80;99.90;;;;;;5068637;28;19985;-69
2023/05/05 07:45:03;;;;;;;;;;;14.00;99.90;;;;;;5069320;28;19933;-69
2023/05/05 07:47:29;;;;;;;;;;;14.00;99.90;;;;;;5069491;28;19997;-69
2023/05/05 07:49:54;;;;;;;;;;;14.20;99.90;;;;;;5072224;28;19924;-68
2023/05/05 07:52:20;;;;;;;;;;;14.20;99.90;;;;;;5072635;28;20282;-68
2023/05/05 07:54:47;;;;;;;;;;;14.40;99.90;;;;;;5068682;28;20073;-68
2023/05/05 07:57:12;;;;;;;;;;;14.50;99.90;;;;;;5067267;28;20015;-70
2023/05/05 07:59:42;;;;;;;;;;;14.50;99.90;;;;;;5070761;28;20412;-69
2023/05/05 08:02:08;;;;;;;;;;;14.60;99.90;;;;;;5035370;28;20267;-69
2023/05/05 08:04:34;;;;;;;;;;;14.80;99.90;;;;;;5070024;28;19947;-70
2023/05/05 08:06:59;;;;;;;;;;;14.80;99.90;;;;;;5071500;28;20366;-70
2023/05/05 08:09:25;;;;;;;;;;;14.90;99.90;;;;;;5070939;28;19936;-69
2023/05/05 08:11:50;;;;;;;;;;;15.10;99.90;;;;;;5071625;28;19928;-70
2023/05/05 08:14:16;;;;;;;;;;;15.20;99.90;;;;;;5072407;28;19924;-69
2023/05/05 08:16:41;;;;;;;;;;;15.40;99.90;;;;;;5069385;28;20301;-69
2023/05/05 08:19:07;;;;;;;;;;;15.60;99.90;;;;;;5071316;28;20439;-69
2023/05/05 08:21:37;;;;;;;;;;;15.80;99.90;;;;;;5066732;28;21565;-68
2023/05/05 08:24:03;;;;;;;;;;;15.90;99.90;;;;;;5067980;28;20003;-69
2023/05/05 08:26:28;;;;;;;;;;;15.90;99.90;;;;;;5069901;28;20421;-69
2023/05/05 08:28:59;;;;;;;;;;;15.90;99.90;;;;;;5071076;28;19925;-70
2023/05/05 08:31:25;;;;;;;;;;;15.90;99.90;;;;;;5065582;28;19994;-70
2023/05/05 08:33:51;;;;;;;;;;;16.00;99.90;;;;;;5052180;28;19928;-69
2023/05/05 08:36:16;;;;;;;;;;;16.10;99.90;;;;;;5066568;28;20023;-68
2023/05/05 08:38:42;;;;;;;;;;;16.20;99.90;;;;;;5060232;28;20027;-68
2023/05/05 08:41:08;;;;;;;;;;;16.30;99.90;;;;;;5062681;28;20565;-71
2023/05/05 08:43:35;;;;;;;;;;;16.40;99.90;;;;;;5049838;28;19963;-69
2023/05/05 08:46:01;;;;;;;;;;;16.40;99.90;;;;;;5068156;28;19925;-70
2023/05/05 08:48:28;;;;;;;;;;;16.60;99.90;;;;;;5060142;28;19928;-70
2023/05/05 08:50:57;;;;;;;;;;;16.70;99.90;;;;;;5040990;28;20356;-68
2023/05/05 08:53:34;;;;;;;;;;;16.60;99.90;;;;;;5060628;28;19932;-69
2023/05/05 08:56:01;;;;;;;;;;;16.70;99.90;;;;;;5064215;28;19931;-68
2023/05/05 08:58:29;;;;;;;;;;;16.70;99.90;;;;;;5057998;28;19928;-69
2023/05/05 09:00:55;;;;;;;;;;;16.80;99.90;;;;;;5042463;28;19978;-68
2023/05/05 09:03:21;;;;;;;;;;;17.00;99.90;;;;;;5066240;28;20002;-68
2023/05/05 09:05:47;;;;;;;;;;;17.10;99.90;;;;;;5040688;28;20033;-69
2023/05/05 09:08:13;;;;;;;;;;;17.20;99.90;;;;;;5064620;28;19971;-69
2023/05/05 09:10:43;;;;;;;;;;;17.40;99.90;;;;;;5064790;28;19976;-70
2023/05/05 09:13:25;;;;;;;;;;;17.50;99.90;;;;;;5068525;28;19978;-70
2023/05/05 09:15:53;;;;;;;;;;;17.60;99.90;;;;;;5052994;28;19965;-70
2023/05/05 09:18:19;;;;;;;;;;;17.70;99.90;;;;;;5053545;28;20434;-69
2023/05/05 09:20:46;;;;;;;;;;;17.70;99.90;;;;;;5067674;28;20370;-69
2023/05/05 09:23:13;;;;;;;;;;;17.90;99.90;;;;;;5067903;28;19924;-70
2023/05/05 09:26:21;;;;;;;;;;;18.00;99.90;;;;;;5051183;28;20393;-71
2023/05/05 09:28:51;;;;;;;;;;;18.10;99.90;;;;;;5043738;28;19928;-69
2023/05/05 09:31:18;;;;;;;;;;;18.20;99.90;;;;;;5071142;28;20416;-68
2023/05/05 09:33:45;;;;;;;;;;;18.40;99.90;;;;;;5046670;28;19924;-70
2023/05/05 09:36:23;;;;;;;;;;;18.60;99.90;;;;;;5068724;28;19924;-70
2023/05/05 09:39:28;;;;;;;;;;;18.80;99.90;;;;;;5065075;28;20337;-69
2023/05/05 09:42:07;;;;;;;;;;;19.10;99.90;;;;;;4974610;28;19942;-71
2023/05/05 09:44:34;;;;;;;;;;;19.20;99.90;;;;;;5062064;28;20025;-71
2023/05/05 09:47:01;;;;;;;;;;;19.50;99.90;;;;;;5075437;28;19924;-68
2023/05/05 09:49:30;;;;;;;;;;;19.70;99.90;;;;;;5052459;28;20002;-70
2023/05/05 09:51:56;;;;;;;;;;;19.80;99.90;;;;;;5056522;28;19931;-69
2023/05/05 09:54:28;;;;;;;;;;;19.70;99.90;;;;;;5052142;28;19928;-69
2023/05/05 09:56:56;;;;;;;;;;;19.60;99.90;;;;;;5069936;28;20382;-69
2023/05/05 09:59:22;;;;;;;;;;;19.50;99.90;;;;;;5063753;28;20412;-70
2023/05/05 10:01:49;;;;;;;;;;;19.40;99.90;;;;;;5070873;28;19931;-69
2023/05/05 10:04:22;;;;;;;;;;;19.20;99.90;;;;;;5073097;28;19931;-69
2023/05/05 10:06:47;;;;;;;;;;;19.00;99.90;;;;;;5063397;28;19931;-68
2023/05/05 10:09:13;;;;;;;;;;;18.90;99.90;;;;;;5074036;28;20011;-68
2023/05/05 10:11:44;;;;;;;;;;;18.90;99.90;;;;;;5054880;28;19929;-68
2023/05/05 10:14:13;;;;;;;;;;;18.90;99.90;;;;;;5068000;28;19972;-68
2023/05/05 10:16:42;;;;;;;;;;;19.20;99.90;;;;;;5064444;28;19928;-69
2023/05/05 10:19:09;;;;;;;;;;;19.30;99.90;;;;;;5061875;28;19924;-69
2023/05/05 10:21:37;;;;;;;;;;;19.70;99.90;;;;;;5051636;28;19965;-68
2023/05/05 10:24:13;;;;;;;;;;;20.00;99.90;;;;;;5060266;28;20371;-68
2023/05/05 10:26:43;;;;;;;;;;;20.40;99.90;;;;;;5061805;28;20003;-69
2023/05/05 10:29:20;;;;;;;;;;;20.70;99.90;;;;;;5074034;28;20389;-66
2023/05/05 10:31:48;;;;;;;;;;;21.10;99.90;;;;;;5070274;28;19921;-66
2023/05/05 10:34:37;;;;;;;;;;;21.50;99.90;;;;;;5070562;28;19939;-67
2023/05/05 10:37:05;;;;;;;;;;;21.50;99.90;;;;;;5059863;28;19929;-66
2023/05/05 10:39:31;;;;;;;;;;;21.30;99.90;;;;;;5067022;28;19924;-68
2023/05/05 10:42:00;;;;;;;;;;;21.30;99.90;;;;;;5079433;28;20462;-69
2023/05/05 10:44:28;;;;;;;;;;;21.60;99.90;;;;;;5075701;28;19925;-68
2023/05/05 10:46:53;;;;;;;;;;;21.80;99.90;;;;;;5073306;28;19980;-67
2023/05/05 10:49:31;;;;;;;;;;;21.70;99.90;;;;;;5069279;28;20394;-69
2023/05/05 10:52:06;;;;;;;;;;;21.60;99.90;;;;;;5051733;28;20322;-69
2023/05/05 10:54:38;;;;;;;;;;;21.60;99.90;;;;;;5054268;28;19931;-69
2023/05/05 10:57:04;;;;;;;;;;;21.50;99.90;;;;;;5046761;28;20386;-68
2023/05/05 10:59:38;;;;;;;;;;;21.30;99.90;;;;;;5056428;28;19939;-68
2023/05/05 11:02:22;;;;;;;;;;;21.20;99.90;;;;;;5070075;28;19929;-67
2023/05/05 11:05:07;;;;;;;;;;;21.10;99.90;;;;;;5044470;28;19947;-69
2023/05/05 11:07:36;;;;;;;;;;;21.10;99.90;;;;;;5061598;28;19931;-69
2023/05/05 11:10:03;;;;;;;;;;;21.20;99.90;;;;;;5072613;28;20402;-69
2023/05/05 11:12:29;;;;;;;;;;;21.20;99.90;;;;;;5055550;28;20397;-68
2023/05/05 11:15:13;;;;;;;;;;;21.50;99.90;;;;;;5073251;28;19970;-69
2023/05/05 11:17:45;;;;;;;;;;;22.00;99.90;;;;;;5069853;28;20400;-69
2023/05/05 11:20:11;;;;;;;;;;;22.70;99.90;;;;;;5066168;28;19932;-69
2023/05/05 11:22:55;;;;;;;;;;;23.20;99.90;;;;;;5063055;28;19928;-68
2023/05/05 11:25:33;;;;;;;;;;;23.40;99.90;;;;;;5069076;28;19925;-68
2023/05/05 11:28:05;;;;;;;;;;;23.70;99.90;;;;;;5064482;28;19924;-67
2023/05/05 11:30:30;;;;;;;;;;;24.00;99.90;;;;;;5064981;28;20347;-68
2023/05/05 11:33:15;;;;;;;;;;;23.90;99.90;;;;;;5067696;28;19924;-68
2023/05/05 11:35:53;;;;;;;;;;;23.70;99.90;;;;;;5051865;28;23672;-69
2023/05/05 11:38:20;;;;;;;;;;;23.30;99.60;;;;;;5053836;28;20375;-68
2023/05/05 11:40:46;;;;;;;;;;;23.00;99.90;;;;;;5058469;28;19936;-68
2023/05/05 11:43:12;;;;;;;;;;;22.90;99.90;;;;;;5055412;28;19925;-68
2023/05/05 11:45:38;;;;;;;;;;;23.10;99.90;;;;;;5072733;28;19925;-68
2023/05/05 11:48:25;;;;;;;;;;;23.10;99.90;;;;;;5072584;28;20333;-68
2023/05/05 11:50:51;;;;;;;;;;;23.10;99.90;;;;;;5071404;28;19931;-68
2023/05/05 11:53:18;;;;;;;;;;;22.90;99.90;;;;;;5073442;28;19924;-68
2023/05/05 11:55:43;;;;;;;;;;;22.80;99.90;;;;;;5058678;28;19936;-69
2023/05/05 11:58:18;;;;;;;;;;;22.90;99.90;;;;;;5072563;28;19924;-68
2023/05/05 12:00:43;;;;;;;;;;;22.90;99.90;;;;;;5068592;28;20027;-68
2023/05/05 12:03:09;;;;;;;;;;;23.00;99.90;;;;;;5073061;28;20393;-68
2023/05/05 12:05:35;;;;;;;;;;;22.90;99.90;;;;;;5063054;28;20405;-68
2023/05/05 12:08:00;;;;;;;;;;;22.70;99.90;;;;;;5054015;28;20375;-67
2023/05/05 12:10:26;;;;;;;;;;;22.70;99.90;;;;;;5040474;28;19924;-68
2023/05/05 12:12:51;;;;;;;;;;;22.60;99.90;;;;;;5069828;28;19924;-69
2023/05/05 12:15:26;;;;;;;;;;;22.70;99.90;;;;;;5071357;28;19928;-68
2023/05/05 12:17:51;;;;;;;;;;;22.60;99.90;;;;;;5070082;28;20027;-68
2023/05/05 12:20:27;;;;;;;;;;;22.50;99.90;;;;;;5067985;28;19943;-69
2023/05/05 12:22:58;;;;;;;;;;;22.30;99.90;;;;;;5053716;28;20020;-69
2023/05/05 12:25:23;;;;;;;;;;;22.30;99.90;;;;;;5071465;28;19925;-68
2023/05/05 12:27:52;;;;;;;;;;;22.30;99.90;;;;;;5072327;28;20231;-68
2023/05/05 12:30:18;;;;;;;;;;;22.20;99.90;;;;;;5066008;28;19979;-68
2023/05/05 12:32:44;;;;;;;;;;;21.90;99.90;;;;;;5071461;28;20009;-68
2023/05/05 12:35:09;;;;;;;;;;;21.70;99.90;;;;;;5063377;28;19948;-70
2023/05/05 12:37:35;;;;;;;;;;;21.60;99.90;;;;;;5046321;28;19936;-69
2023/05/05 12:40:02;;;;;;;;;;;21.60;99.90;;;;;;5045706;28;19986;-68
2023/05/05 12:42:28;;;;;;;;;;;21.50;99.90;;;;;;5067794;28;19936;-69
2023/05/05 12:44:53;;;;;;;;;;;21.40;99.90;;;;;;5065057;28;20011;-70
2023/05/05 12:47:29;;;;;;;;;;;21.30;99.90;;;;;;5067230;28;20357;-69
2023/05/05 12:49:54;;;;;;;;;;;21.20;99.90;;;;;;5046816;28;19943;-69
2023/05/05 12:52:20;;;;;;;;;;;21.00;99.90;;;;;;5052213;28;19924;-69
2023/05/05 12:54:53;;;;;;;;;;;21.00;99.90;;;;;;5068455;28;19935;-69
2023/05/05 12:57:18;;;;;;;;;;;20.90;99.90;;;;;;5062049;28;20331;-68
2023/05/05 12:59:44;;;;;;;;;;;20.90;99.90;;;;;;5054124;28;20751;-68
2023/05/05 13:02:09;;;;;;;;;;;20.70;99.90;;;;;;5066641;28;19963;-68
2023/05/05 13:04:46;;;;;;;;;;;20.40;99.90;;;;;;5049585;28;19956;-68
2023/05/05 13:07:13;;;;;;;;;;;20.20;99.90;;;;;;5058620;28;19924;-68
2023/05/05 13:09:39;;;;;;;;;;;20.20;99.90;;;;;;5065620;28;19968;-68
2023/05/05 13:12:07;;;;;;;;;;;20.20;99.90;;;;;;5066997;28;20299;-69
2023/05/05 13:14:33;;;;;;;;;;;19.90;99.90;;;;;;5075229;28;20275;-69
2023/05/05 13:16:59;;;;;;;;;;;19.80;99.90;;;;;;5053146;28;20302;-70
2023/05/05 13:19:25;;;;;;;;;;;19.70;99.90;;;;;;5075659;28;19924;-69
2023/05/05 13:21:51;;;;;;;;;;;19.60;99.90;;;;;;5072244;28;20003;-69
2023/05/05 13:24:16;;;;;;;;;;;19.40;99.90;;;;;;5073616;28;19924;-69
2023/05/05 13:26:42;;;;;;;;;;;19.30;99.90;;;;;;5075683;28;19989;-68
2023/05/05 13:29:07;;;;;;;;;;;19.20;99.90;;;;;;5084974;28;19977;-69
2023/05/05 13:31:33;;;;;;;;;;;19.00;99.90;;;;;;5075784;28;19961;-69
2023/05/05 13:33:58;;;;;;;;;;;18.70;99.90;;;;;;5069265;28;19925;-69
2023/05/05 13:36:25;;;;;;;;;;;18.60;99.90;;;;;;5070418;28;20440;-68
2023/05/05 13:38:51;;;;;;;;;;;18.40;99.90;;;;;;5066635;28;19969;-70
2023/05/05 13:41:17;;;;;;;;;;;18.20;99.90;;;;;;5067182;28;20011;-69
2023/05/05 13:43:42;;;;;;;;;;;18.10;99.90;;;;;;5070790;28;19932;-69
2023/05/05 13:46:11;;;;;;;;;;;17.80;99.90;;;;;;5067634;28;19939;-70
2023/05/05 13:48:40;;;;;;;;;;;17.60;99.90;;;;;;5070860;28;20015;-70
2023/05/05 13:51:06;;;;;;;;;;;17.40;99.90;;;;;;5051500;28;19924;-69
2023/05/05 13:53:32;;;;;;;;;;;17.30;99.90;;;;;;5062205;28;19938;-69
2023/05/05 13:55:58;;;;;;;;;;;17.10;99.90;;;;;;5053361;28;20051;-68
2023/05/05 13:58:23;;;;;;;;;;;17.00;99.90;;;;;;5067389;28;20019;-69
2023/05/05 14:00:49;;;;;;;;;;;16.80;99.90;;;;;;5067212;28;20011;-69
2023/05/05 14:03:15;;;;;;;;;;;16.70;99.90;;;;;;5069724;28;19924;-69
2023/05/05 14:05:41;;;;;;;;;;;16.60;99.90;;;;;;5070589;28;19924;-69
2023/05/05 14:08:08;;;;;;;;;;;16.60;99.90;;;;;;5071864;28;20197;-69
2023/05/05 14:10:34;;;;;;;;;;;16.50;99.90;;;;;;5069245;28;19924;-70
2023/05/05 14:12:59;;;;;;;;;;;16.40;99.90;;;;;;5045085;28;19932;-69
2023/05/05 14:15:25;;;;;;;;;;;16.40;99.90;;;;;;5069028;28;19928;-70
2023/05/05 14:17:51;;;;;;;;;;;16.30;99.90;;;;;;5072240;28;19931;-69
2023/05/05 14:20:16;;;;;;;;;;;16.10;99.90;;;;;;5068883;28;20277;-68
2023/05/05 14:22:45;;;;;;;;;;;16.10;99.90;;;;;;5059367;28;19928;-69